createdAt,value
2018-09-08T00:00:01.118Z,14.52
2018-09-08T00:03:05.971Z,14.51
2018-09-08T00:06:10.391Z,14.44
2018-09-08T00:09:14.767Z,14.39
2018-09-08T00:12:19.457Z,14.43
2018-09-08T00:15:29.237Z,14.40
2018-09-08T00:18:38.948Z,14.35
2018-09-08T00:21:48.665Z,14.45
2018-09-08T00:24:58.935Z,14.43
2018-09-08T00:28:06.812Z,14.56
2018-09-08T00:31:20.728Z,14.63
2018-09-08T00:34:25.166Z,14.59
2018-09-08T00:37:29.604Z,14.57
2018-09-08T00:40:34.015Z,14.56
2018-09-08T00:43:40.130Z,14.56
2018-09-08T00:46:44.567Z,14.58
2018-09-08T00:49:48.941Z,14.55
2018-09-08T00:52:53.411Z,14.42
2018-09-08T00:55:57.783Z,14.25
2018-09-08T00:59:02.915Z,14.20
2018-09-08T01:02:07.641Z,14.30
2018-09-08T01:05:12.238Z,14.41
2018-09-08T01:08:16.635Z,14.35
2018-09-08T01:11:21.037Z,14.40
2018-09-08T01:14:25.410Z,14.20
2018-09-08T01:17:29.768Z,14.03
2018-09-08T01:20:35.017Z,13.82
2018-09-08T01:23:39.396Z,13.71
2018-09-08T01:26:43.740Z,13.52
2018-09-08T01:29:48.469Z,13.44
2018-09-08T01:32:52.844Z,13.40
2018-09-08T01:35:58.073Z,13.30
2018-09-08T01:39:02.505Z,13.37
2018-09-08T01:42:06.882Z,13.38
2018-09-08T01:45:11.249Z,13.40
2018-09-08T01:48:15.627Z,13.36
2018-09-08T01:51:20.388Z,13.29
2018-09-08T01:54:24.774Z,13.32
2018-09-08T01:57:28.860Z,13.22
2018-09-08T02:00:33.195Z,13.16
2018-09-08T02:03:37.840Z,13.05
2018-09-08T02:06:42.469Z,12.95
2018-09-08T02:09:46.893Z,12.85
2018-09-08T02:12:51.365Z,12.79
2018-09-08T02:15:55.741Z,13.05
2018-09-08T02:19:00.102Z,13.09
2018-09-08T02:22:04.498Z,13.12
2018-09-08T02:25:09.074Z,13.11
2018-09-08T02:28:13.409Z,13.01
2018-09-08T02:31:17.769Z,12.76
2018-09-08T02:34:22.133Z,12.77
2018-09-08T02:37:26.484Z,12.84
2018-09-08T02:40:31.145Z,12.97
2018-09-08T02:43:35.551Z,12.97
2018-09-08T02:46:39.880Z,12.84
2018-09-08T02:50:01.161Z,12.70
2018-09-08T02:53:04.591Z,13.05
2018-09-08T02:56:07.387Z,13.21
2018-09-08T02:59:10.234Z,13.16
2018-09-08T03:02:13.001Z,13.20
2018-09-08T03:05:15.795Z,12.98
2018-09-08T03:08:18.582Z,12.89
2018-09-08T03:11:21.360Z,12.77
2018-09-08T03:14:24.169Z,12.83
2018-09-08T03:17:26.966Z,13.01
2018-09-08T03:20:29.773Z,13.04
2018-09-08T03:23:32.605Z,12.86
2018-09-08T03:26:35.516Z,12.75
2018-09-08T03:29:38.330Z,12.94
2018-09-08T03:32:41.140Z,12.82
2018-09-08T03:35:43.926Z,12.74
2018-09-08T03:38:46.804Z,12.67
2018-09-08T03:41:49.556Z,12.58
2018-09-08T03:44:52.486Z,12.60
2018-09-08T03:47:55.269Z,12.65
2018-09-08T03:50:58.617Z,12.69
2018-09-08T03:54:01.608Z,12.83
2018-09-08T03:57:04.377Z,12.89
2018-09-08T04:00:07.277Z,12.95
2018-09-08T04:03:11.684Z,13.02
2018-09-08T04:06:16.128Z,12.90
2018-09-08T04:09:20.752Z,12.81
2018-09-08T04:12:26.033Z,12.71
2018-09-08T04:15:30.455Z,12.66
2018-09-08T04:18:35.523Z,12.53
2018-09-08T04:21:40.377Z,12.48
2018-09-08T04:24:44.763Z,12.32
2018-09-08T04:27:50.234Z,12.26
2018-09-08T04:30:55.250Z,12.19
2018-09-08T04:33:59.581Z,12.15
2018-09-08T04:37:04.116Z,12.20
2018-09-08T04:40:08.463Z,12.30
2018-09-08T04:43:12.845Z,12.43
2018-09-08T04:46:17.455Z,12.57
2018-09-08T04:49:21.952Z,12.60
2018-09-08T04:52:26.290Z,12.58
2018-09-08T04:55:30.879Z,12.61
2018-09-08T04:58:35.265Z,12.68
2018-09-08T05:01:39.618Z,12.72
2018-09-08T05:04:44.123Z,12.79
2018-09-08T05:07:48.752Z,12.83
2018-09-08T05:10:53.091Z,12.97
2018-09-08T05:13:58.116Z,13.06
2018-09-08T05:17:02.895Z,13.14
2018-09-08T05:20:07.769Z,13.28
2018-09-08T05:23:13.050Z,13.39
2018-09-08T05:26:17.642Z,13.46
2018-09-08T05:29:21.977Z,13.54
2018-09-08T05:32:27.044Z,13.51
2018-09-08T05:35:31.469Z,13.53
2018-09-08T05:38:36.002Z,13.45
2018-09-08T05:41:40.492Z,13.44
2018-09-08T05:44:45.088Z,13.52
2018-09-08T05:47:49.656Z,13.58
2018-09-08T05:50:54.795Z,13.73
2018-09-08T05:53:59.486Z,14.01
2018-09-08T05:57:03.942Z,14.34
2018-09-08T06:00:08.474Z,14.58
2018-09-08T06:03:13.085Z,14.86
2018-09-08T06:06:17.469Z,14.95
2018-09-08T06:09:21.944Z,15.02
2018-09-08T06:12:26.389Z,15.14
2018-09-08T06:15:30.826Z,15.10
2018-09-08T06:18:35.425Z,15.14
2018-09-08T06:21:39.895Z,15.30
2018-09-08T06:24:44.364Z,15.59
2018-09-08T06:27:48.792Z,15.94
2018-09-08T06:30:53.218Z,16.89
2018-09-08T06:33:57.670Z,18.49
2018-09-08T06:37:02.054Z,19.54
2018-09-08T06:40:07.053Z,19.91
2018-09-08T06:43:11.442Z,19.70
2018-09-08T06:46:16.090Z,20.58
2018-09-08T06:49:20.639Z,20.45
2018-09-08T06:52:24.995Z,20.48
2018-09-08T06:55:29.333Z,20.53
2018-09-08T06:58:33.714Z,19.79
2018-09-08T07:01:38.128Z,19.31
2018-09-08T07:04:42.489Z,19.22
2018-09-08T07:07:47.225Z,18.52
2018-09-08T07:10:51.592Z,18.35
2018-09-08T07:13:56.834Z,19.52
2018-09-08T07:17:01.642Z,19.21
2018-09-08T07:20:06.654Z,19.02
2018-09-08T07:23:11.016Z,19.63
2018-09-08T07:26:15.349Z,19.80
2018-09-08T07:29:19.788Z,20.32
2018-09-08T07:32:24.626Z,20.92
2018-09-08T07:35:29.041Z,20.60
2018-09-08T07:38:33.537Z,20.63
2018-09-08T07:41:47.300Z,18.97
2018-09-08T07:44:51.995Z,18.03
2018-09-08T07:47:56.438Z,18.79
2018-09-08T07:51:00.864Z,19.90
2018-09-08T07:54:05.381Z,19.38
2018-09-08T07:57:09.926Z,18.74
2018-09-08T08:00:14.467Z,18.89
2018-09-08T08:03:19.438Z,19.35
2018-09-08T08:06:23.794Z,19.67
2018-09-08T08:09:28.452Z,20.74
2018-09-08T08:12:33.150Z,21.21
2018-09-08T08:15:38.331Z,21.22
2018-09-08T08:18:42.737Z,20.80
2018-09-08T08:21:47.140Z,21.87
2018-09-08T08:24:52.422Z,21.19
2018-09-08T08:27:56.961Z,20.53
2018-09-08T08:31:01.336Z,20.59
2018-09-08T08:34:21.072Z,20.74
2018-09-08T08:37:25.430Z,20.46
2018-09-08T08:40:29.805Z,21.26
2018-09-08T08:43:34.365Z,21.54
2018-09-08T08:46:39.289Z,20.55
2018-09-08T08:49:44.003Z,19.86
2018-09-08T08:54:04.198Z,19.77
2018-09-08T08:57:08.978Z,20.47
2018-09-08T09:00:13.501Z,20.48
2018-09-08T09:03:18.335Z,20.21
2018-09-08T09:06:23.274Z,20.65
2018-09-08T09:09:27.999Z,19.84
2018-09-08T09:12:33.922Z,18.98
2018-09-08T09:15:38.706Z,18.64
2018-09-08T09:19:00.731Z,18.73
2018-09-08T09:22:25.656Z,19.09
2018-09-08T09:25:30.382Z,19.90
2018-09-08T09:28:35.225Z,20.23
2018-09-08T09:31:39.614Z,20.55
2018-09-08T09:34:44.171Z,20.02
2018-09-08T09:37:49.134Z,20.43
2018-09-08T09:40:53.717Z,20.98
2018-09-08T09:43:59.239Z,21.16
2018-09-08T09:47:03.694Z,21.56
2018-09-08T09:50:10.078Z,21.03
2018-09-08T09:53:15.012Z,21.38
2018-09-08T09:56:19.481Z,21.79
2018-09-08T09:59:24.240Z,21.93
2018-09-08T10:02:43.895Z,21.95
2018-09-08T10:05:49.895Z,22.59
2018-09-08T10:08:55.504Z,22.36
2018-09-08T10:12:00.166Z,21.78
2018-09-08T10:15:05.744Z,21.51
2018-09-08T10:18:10.406Z,20.90
2018-09-08T10:21:14.926Z,19.93
2018-09-08T10:24:19.762Z,19.37
2018-09-08T10:27:24.456Z,19.02
2018-09-08T10:30:29.119Z,19.36
2018-09-08T10:33:33.764Z,19.25
2018-09-08T10:36:38.243Z,19.20
2018-09-08T10:39:43.035Z,19.11
2018-09-08T10:42:49.053Z,19.21
2018-09-08T10:45:53.710Z,19.29
2018-09-08T10:48:58.763Z,19.62
2018-09-08T10:52:45.957Z,19.87
2018-09-08T10:55:50.446Z,20.44
2018-09-08T10:58:55.802Z,20.54
2018-09-08T11:02:01.016Z,20.79
2018-09-08T11:05:05.589Z,21.07
2018-09-08T11:08:09.987Z,20.83
2018-09-08T11:11:14.421Z,20.55
2018-09-08T11:14:19.056Z,20.22
2018-09-08T11:17:23.558Z,20.41
2018-09-08T11:20:28.294Z,20.54
2018-09-08T11:23:33.260Z,20.70
2018-09-08T11:26:38.199Z,20.65
2018-09-08T11:29:42.686Z,20.74
2018-09-08T11:32:47.284Z,21.03
2018-09-08T11:35:52.714Z,21.21
2018-09-08T11:38:57.609Z,21.27
2018-09-08T11:42:02.401Z,21.16
2018-09-08T11:45:06.871Z,21.31
2018-09-08T11:48:11.287Z,21.47
2018-09-08T11:51:15.741Z,21.70
2018-09-08T11:54:20.154Z,21.76
2018-09-08T11:57:24.570Z,21.87
2018-09-08T12:00:29.072Z,22.04
2018-09-08T12:03:34.372Z,22.35
2018-09-08T12:06:38.957Z,22.47
2018-09-08T12:09:43.536Z,22.36
2018-09-08T12:12:48.210Z,22.13
2018-09-08T12:15:52.707Z,22.59
2018-09-08T12:18:57.421Z,22.96
2018-09-08T12:22:01.833Z,22.76
2018-09-08T12:25:06.758Z,22.67
2018-09-08T12:28:11.294Z,22.69
2018-09-08T12:31:15.800Z,22.43
2018-09-08T12:34:20.316Z,22.56
2018-09-08T12:37:25.442Z,22.68
2018-09-08T12:40:30.766Z,22.71
2018-09-08T12:43:37.591Z,22.81
2018-09-08T12:46:43.986Z,23.15
2018-09-08T12:49:49.000Z,23.02
2018-09-08T12:52:54.043Z,23.13
2018-09-08T12:55:59.517Z,22.93
2018-09-08T12:59:04.180Z,23.22
2018-09-08T13:02:08.643Z,23.73
2018-09-08T13:05:13.303Z,23.63
2018-09-08T13:08:18.706Z,23.31
2018-09-08T13:11:23.560Z,22.81
2018-09-08T13:14:28.360Z,22.71
2018-09-08T13:17:33.067Z,22.52
2018-09-08T13:20:37.948Z,22.27
2018-09-08T13:23:42.471Z,22.48
2018-09-08T13:26:46.998Z,22.56
2018-09-08T13:29:53.210Z,22.40
2018-09-08T13:32:57.920Z,21.95
2018-09-08T13:36:04.258Z,21.61
2018-09-08T13:39:10.461Z,21.39
2018-09-08T13:42:15.081Z,21.27
2018-09-08T13:45:19.533Z,21.09
2018-09-08T13:48:25.015Z,20.86
2018-09-08T13:51:30.887Z,20.96
2018-09-08T13:54:35.823Z,21.01
2018-09-08T13:57:40.825Z,21.05
2018-09-08T14:00:46.150Z,21.07
2018-09-08T14:03:51.406Z,20.87
2018-09-08T14:06:56.429Z,20.86
2018-09-08T14:10:01.469Z,20.86
2018-09-08T14:13:06.548Z,20.85
2018-09-08T14:16:12.064Z,21.24
2018-09-08T14:19:16.966Z,21.40
2018-09-08T14:22:21.840Z,21.38
2018-09-08T14:25:26.429Z,21.43
2018-09-08T14:28:31.260Z,21.37
2018-09-08T14:31:35.839Z,21.40
2018-09-08T14:34:41.015Z,21.50
2018-09-08T14:37:45.718Z,21.91
2018-09-08T14:40:50.245Z,22.11
2018-09-08T14:43:54.718Z,22.23
2018-09-08T14:46:59.220Z,22.08
2018-09-08T14:50:03.643Z,22.20
2018-09-08T14:53:08.301Z,22.19
2018-09-08T14:56:12.803Z,22.03
2018-09-08T14:59:17.285Z,21.90
2018-09-08T15:02:22.143Z,21.79
2018-09-08T15:05:26.853Z,21.55
2018-09-08T15:08:34.105Z,21.50
2018-09-08T15:11:38.821Z,21.50
2018-09-08T15:14:43.698Z,21.44
2018-09-08T15:17:48.562Z,21.33
2018-09-08T15:20:53.553Z,21.15
2018-09-08T15:23:59.045Z,20.94
2018-09-08T15:27:04.088Z,20.75
2018-09-08T15:30:13.744Z,20.76
2018-09-08T15:33:18.460Z,20.79
2018-09-08T15:36:22.972Z,20.58
2018-09-08T15:39:27.378Z,20.63
2018-09-08T15:42:31.785Z,20.79
2018-09-08T15:45:37.050Z,20.67
2018-09-08T15:48:41.450Z,20.60
2018-09-08T15:51:45.830Z,20.63
2018-09-08T15:54:50.475Z,20.75
2018-09-08T15:57:54.940Z,20.80
2018-09-08T16:00:59.274Z,20.99
2018-09-08T16:04:03.867Z,20.92
2018-09-08T16:07:08.770Z,20.84
2018-09-08T16:10:13.378Z,20.75
2018-09-08T16:13:17.782Z,20.62
2018-09-08T16:16:22.182Z,20.58
2018-09-08T16:19:26.753Z,20.47
2018-09-08T16:22:31.138Z,20.64
2018-09-08T16:25:37.244Z,20.53
2018-09-08T16:28:42.121Z,20.39
2018-09-08T16:31:46.513Z,20.27
2018-09-08T16:34:51.087Z,20.30
2018-09-08T16:37:55.493Z,20.26
2018-09-08T16:41:00.215Z,20.10
2018-09-08T16:44:04.681Z,19.98
2018-09-08T16:47:09.009Z,19.94
2018-09-08T16:50:13.405Z,19.80
2018-09-08T16:53:19.015Z,19.58
2018-09-08T16:56:23.390Z,19.39
2018-09-08T16:59:27.790Z,19.26
2018-09-08T17:02:32.806Z,19.19
2018-09-08T17:05:37.384Z,19.05
2018-09-08T17:08:41.846Z,18.91
2018-09-08T17:11:46.459Z,18.75
2018-09-08T17:14:51.120Z,18.54
2018-09-08T17:17:55.493Z,18.28
2018-09-08T17:20:59.920Z,18.11
2018-09-08T17:24:04.252Z,17.94
2018-09-08T17:27:08.642Z,17.72
2018-09-08T17:30:13.182Z,17.55
2018-09-08T17:33:17.555Z,17.38
2018-09-08T17:36:21.898Z,17.20
2018-09-08T17:39:26.494Z,16.99
2018-09-08T17:42:30.861Z,16.87
2018-09-08T17:45:36.042Z,16.90
2018-09-08T17:48:40.525Z,16.74
2018-09-08T17:51:44.944Z,16.53
2018-09-08T17:54:49.371Z,16.33
2018-09-08T17:57:54.504Z,16.22
2018-09-08T18:00:59.098Z,16.08
2018-09-08T18:04:03.614Z,15.93
2018-09-08T18:07:08.110Z,15.81
2018-09-08T18:10:12.666Z,15.71
2018-09-08T18:13:17.513Z,15.65
2018-09-08T18:16:22.297Z,15.53
2018-09-08T18:19:27.324Z,15.43
2018-09-08T18:22:34.781Z,15.37
2018-09-08T18:25:39.777Z,15.27
2018-09-08T18:28:45.729Z,15.18
2018-09-08T18:31:50.133Z,15.11
2018-09-08T18:34:54.717Z,15.04
2018-09-08T18:37:59.085Z,14.97
2018-09-08T18:41:03.509Z,14.86
2018-09-08T18:44:08.345Z,14.80
2018-09-08T18:47:12.890Z,14.71
2018-09-08T18:50:17.532Z,14.65
2018-09-08T18:53:21.998Z,14.60
2018-09-08T18:56:26.897Z,14.54
2018-09-08T18:59:31.517Z,14.48
2018-09-08T19:02:36.149Z,14.40
2018-09-08T19:05:40.630Z,14.33
2018-09-08T19:08:45.763Z,14.31
2018-09-08T19:11:50.708Z,14.25
2018-09-08T19:15:00.687Z,14.19
2018-09-08T19:18:05.445Z,14.12
2018-09-08T19:21:10.199Z,14.03
2018-09-08T19:24:19.968Z,14.00
2018-09-08T19:27:24.504Z,14.06
2018-09-08T19:30:28.954Z,13.93
2018-09-08T19:33:34.267Z,13.88
2018-09-08T19:36:38.856Z,13.84
2018-09-08T19:39:43.447Z,13.78
2018-09-08T19:42:47.947Z,13.75
2018-09-08T19:45:52.445Z,13.71
2018-09-08T19:48:56.893Z,13.64
2018-09-08T19:52:01.503Z,13.54
2018-09-08T19:55:06.016Z,13.55
2018-09-08T19:59:15.015Z,13.49
2018-09-08T20:02:19.443Z,13.46
2018-09-08T20:05:24.778Z,13.41
2018-09-08T20:08:29.213Z,13.34
2018-09-08T20:11:33.558Z,13.31
2018-09-08T20:14:38.263Z,13.30
2018-09-08T20:17:43.589Z,13.28
2018-09-08T20:20:48.156Z,13.25
2018-09-08T20:23:52.625Z,13.17
2018-09-08T20:26:57.407Z,13.17
2018-09-08T20:30:01.872Z,13.17
2018-09-08T20:33:07.127Z,13.10
2018-09-08T20:36:11.558Z,13.05
2018-09-08T20:39:16.473Z,13.04
2018-09-08T20:42:20.865Z,13.00
2018-09-08T20:45:26.029Z,12.95
2018-09-08T20:48:30.581Z,12.94
2018-09-08T20:51:35.232Z,12.90
2018-09-08T20:54:39.620Z,12.86
2018-09-08T21:01:00.462Z,12.75
2018-09-08T21:04:05.234Z,12.69
2018-09-08T21:07:10.493Z,12.68
2018-09-08T21:10:14.981Z,12.63
2018-09-08T21:13:19.525Z,12.60
2018-09-08T21:16:23.881Z,12.57
2018-09-08T21:19:28.323Z,12.51
2018-09-08T21:22:32.656Z,12.51
2018-09-08T21:25:37.817Z,12.47
2018-09-08T21:28:42.400Z,12.48
2018-09-08T21:31:46.777Z,12.46
2018-09-08T21:34:51.584Z,12.39
2018-09-08T21:37:56.129Z,12.33
2018-09-08T21:41:00.476Z,12.27
2018-09-08T21:44:04.961Z,12.22
2018-09-08T21:47:09.685Z,12.22
2018-09-08T21:50:14.266Z,12.13
2018-09-08T21:53:19.517Z,12.11
2018-09-08T21:56:23.852Z,12.03
2018-09-08T21:59:28.570Z,12.09
2018-09-08T22:02:32.991Z,12.08
2018-09-08T22:05:39.549Z,12.07
2018-09-08T22:08:44.956Z,12.02
2018-09-08T22:11:49.408Z,11.92
2018-09-08T22:14:55.428Z,11.90
2018-09-08T22:17:59.886Z,11.86
2018-09-08T22:21:04.285Z,11.81
2018-09-08T22:24:08.795Z,11.76
2018-09-08T22:27:13.549Z,11.69
2018-09-08T22:30:18.048Z,11.70
2018-09-08T22:33:22.512Z,11.69
2018-09-08T22:36:27.502Z,11.69
2018-09-08T22:39:31.881Z,11.67
2018-09-08T22:42:36.797Z,11.68
2018-09-08T22:45:41.300Z,11.57
2018-09-08T22:48:46.157Z,11.58
2018-09-08T22:51:51.068Z,11.59
2018-09-08T22:54:55.760Z,11.51
2018-09-08T22:58:00.415Z,11.49
2018-09-08T23:01:04.869Z,11.48
2018-09-08T23:04:09.309Z,11.48
2018-09-08T23:07:13.746Z,11.52
2018-09-08T23:10:18.410Z,11.53
2018-09-08T23:13:22.912Z,11.53
2018-09-08T23:16:27.293Z,11.57
2018-09-08T23:19:31.660Z,11.55
2018-09-08T23:22:36.050Z,11.58
2018-09-08T23:25:40.509Z,11.59
2018-09-08T23:28:44.960Z,11.59
2018-09-08T23:31:49.350Z,11.54
2018-09-08T23:34:54.447Z,11.56
2018-09-08T23:37:58.896Z,11.50
2018-09-08T23:41:03.508Z,11.51
2018-09-08T23:44:07.961Z,11.42
2018-09-08T23:47:12.741Z,11.37
2018-09-08T23:50:17.280Z,11.31
2018-09-08T23:53:22.010Z,11.27
2018-09-08T23:56:26.454Z,11.25
2018-09-08T23:59:30.914Z,11.22
